Time;durP1;ratioP1;P1;durP2;ratioP2;P2;SDS_P1;SDS_P2;PMS_P1;PMS_P2;Temp;Humidity;BMP_temperature;BMP_pressure;BME280_temperature;BME280_humidity;BME280_pressure;Samples;Min_cycle;Max_cycle;Signal;HPM_P1;HPM_P2
2022/02/27 00:01:06;;;;;;;;;;;;;;;;;;5074756;28;20326;-79
2022/02/27 00:03:31;;;;;;;;;;;;;;;;;;5074848;28;20319;-79
2022/02/27 00:05:56;;;;;;;;;;;;;;;;;;5074897;28;20022;-79
2022/02/27 00:08:21;;;;;;;;;;;;;;;;;;5074773;28;20283;-80
2022/02/27 00:10:46;;;;;;;;;;;;;;;;;;5074565;28;19908;-79
2022/02/27 00:13:12;;;;;;;;;;;;;;;;;;5075481;28;20297;-79
2022/02/27 00:15:37;;;;;;;;;;;;;;;;;;5074552;28;19919;-80
2022/02/27 00:18:02;;;;;;;;;;;;;;;;;;5074616;28;20364;-79
2022/02/27 00:20:27;;;;;;;;;;;;;;;;;;5075808;28;19909;-79
2022/02/27 00:22:52;;;;;;;;;;;;;;;;;;5074527;28;19960;-79
2022/02/27 00:25:17;;;;;;;;;;;;;;;;;;5074443;28;20011;-79
2022/02/27 00:27:42;;;;;;;;;;;;;;;;;;5074439;28;19909;-79
2022/02/27 00:30:08;;;;;;;;;;;;;;;;;;5073970;28;19913;-80
2022/02/27 00:32:33;;;;;;;;;;;;;;;;;;5074327;28;20004;-79
2022/02/27 00:34:58;;;;;;;;;;;;;;;;;;5075504;28;19912;-80
2022/02/27 00:37:23;;;;;;;;;;;;;;;;;;5073182;28;19915;-79
2022/02/27 00:39:48;;;;;;;;;;;;;;;;;;5073916;28;19919;-79
2022/02/27 00:42:13;;;;;;;;;;;;;;;;;;5075402;28;19920;-79
2022/02/27 00:44:38;;;;;;;;;;;;;;;;;;5075497;28;19951;-80
2022/02/27 00:47:03;;;;;;;;;;;;;;;;;;5073912;28;19913;-79
2022/02/27 00:49:29;;;;;;;;;;;;;;;;;;5073971;28;20364;-79
2022/02/27 00:51:54;;;;;;;;;;;;;;;;;;5073942;28;19909;-79
2022/02/27 00:54:19;;;;;;;;;;;;;;;;;;5073867;28;19916;-79
2022/02/27 00:56:44;;;;;;;;;;;;;;;;;;5073848;28;19915;-80
2022/02/27 00:59:09;;;;;;;;;;;;;;;;;;5073603;28;19912;-79
2022/02/27 01:01:34;;;;;;;;;;;;;;;;;;5073412;28;19912;-79
2022/02/27 01:03:59;;;;;;;;;;;;;;;;;;5073659;28;19920;-79
2022/02/27 01:06:24;;;;;;;;;;;;;;;;;;5073687;28;19912;-79
2022/02/27 01:08:50;;;;;;;;;;;;;;;;;;5075205;28;19913;-79
2022/02/27 01:11:15;;;;;;;;;;;;;;;;;;5073444;28;20010;-80
2022/02/27 01:13:40;;;;;;;;;;;;;;;;;;5073402;28;19908;-79
2022/02/27 01:16:06;;;;;;;;;;;;;;;;;;5073543;28;19913;-79
2022/02/27 01:18:31;;;;;;;;;;;;;;;;;;5073445;28;19916;-79
2022/02/27 01:20:56;;;;;;;;;;;;;;;;;;5073068;28;20363;-79
2022/02/27 01:23:21;;;;;;;;;;;;;;;;;;5073257;28;19918;-79
2022/02/27 01:25:46;;;;;;;;;;;;;;;;;;5074474;28;19932;-79
2022/02/27 01:28:11;;;;;;;;;;;;;;;;;;5072820;28;20398;-79
2022/02/27 01:30:36;;;;;;;;;;;;;;;;;;5073155;28;19909;-79
2022/02/27 01:33:01;;;;;;;;;;;;;;;;;;5073140;28;20360;-79
2022/02/27 01:35:27;;;;;;;;;;;;;;;;;;5073148;28;19920;-79
2022/02/27 01:37:52;;;;;;;;;;;;;;;;;;5072993;28;19908;-79
2022/02/27 01:40:17;;;;;;;;;;;;;;;;;;5072962;28;19916;-79
2022/02/27 01:42:42;;;;;;;;;;;;;;;;;;5073028;28;20326;-79
2022/02/27 01:45:07;;;;;;;;;;;;;;;;;;5072632;28;19928;-79
2022/02/27 01:47:32;;;;;;;;;;;;;;;;;;5074319;28;20360;-80
2022/02/27 01:49:57;;;;;;;;;;;;;;;;;;5072516;28;19912;-79
2022/02/27 01:52:22;;;;;;;;;;;;;;;;;;5074066;28;20273;-79
2022/02/27 01:54:47;;;;;;;;;;;;;;;;;;5072854;28;19995;-79
2022/02/27 01:57:13;;;;;;;;;;;;;;;;;;5072785;28;20279;-79
2022/02/27 01:59:38;;;;;;;;;;;;;;;;;;5073928;28;20356;-79
2022/02/27 02:02:04;;;;;;;;;;;;;;;;;;5072866;28;19912;-79
2022/02/27 02:04:29;;;;;;;;;;;;;;;;;;5072585;28;19916;-79
2022/02/27 02:06:54;;;;;;;;;;;;;;;;;;5074032;28;19931;-79
2022/02/27 02:09:19;;;;;;;;;;;;;;;;;;5073939;28;19908;-79
2022/02/27 02:11:44;;;;;;;;;;;;;;;;;;5072599;28;19913;-79
2022/02/27 02:14:09;;;;;;;;;;;;;;;;;;5072543;28;20380;-79
2022/02/27 02:16:35;;;;;;;;;;;;;;;;;;5073769;28;19912;-79
2022/02/27 02:19:00;;;;;;;;;;;;;;;;;;5069003;28;19959;-79
2022/02/27 02:21:26;;;;;;;;;;;;;;;;;;5070755;28;19983;-79
2022/02/27 02:23:51;;;;;;;;;;;;;;;;;;5072440;28;19912;-79
2022/02/27 02:26:16;;;;;;;;;;;;;;;;;;5072520;28;19914;-79
2022/02/27 02:28:44;;;;;;;;;;;;;;;;;;5072326;28;19965;-79
2022/02/27 02:31:09;;;;;;;;;;;;;;;;;;5073700;28;20336;-79
2022/02/27 02:33:34;;;;;;;;;;;;;;;;;;5072331;28;20395;-79
2022/02/27 02:35:59;;;;;;;;;;;;;;;;;;5072276;28;20043;-79
2022/02/27 02:38:26;;;;;;;;;;;;;;;;;;5072189;28;20279;-79
2022/02/27 02:40:51;;;;;;;;;;;;;;;;;;5072094;28;20365;-79
2022/02/27 02:43:16;;;;;;;;;;;;;;;;;;5073469;28;20328;-79
2022/02/27 02:45:41;;;;;;;;;;;;;;;;;;5072312;28;19956;-79
2022/02/27 02:48:06;;;;;;;;;;;;;;;;;;5071923;28;20342;-79
2022/02/27 02:50:31;;;;;;;;;;;;;;;;;;5072093;28;20276;-79
2022/02/27 02:52:56;;;;;;;;;;;;;;;;;;5072053;28;19915;-79
2022/02/27 02:55:22;;;;;;;;;;;;;;;;;;5072187;28;20391;-79
2022/02/27 02:57:47;;;;;;;;;;;;;;;;;;5072234;28;20382;-79
2022/02/27 03:00:12;;;;;;;;;;;;;;;;;;5072785;28;20530;-79
2022/02/27 03:02:37;;;;;;;;;;;;;;;;;;5076098;28;19908;-79
2022/02/27 03:05:02;;;;;;;;;;;;;;;;;;5077124;28;19912;-79
2022/02/27 03:07:27;;;;;;;;;;;;;;;;;;5075951;28;19962;-79
2022/02/27 03:09:52;;;;;;;;;;;;;;;;;;5077067;28;19908;-79
2022/02/27 03:12:17;;;;;;;;;;;;;;;;;;5075938;28;19908;-79
2022/02/27 03:14:42;;;;;;;;;;;;;;;;;;5075272;28;19999;-80
2022/02/27 03:17:08;;;;;;;;;;;;;;;;;;5075335;28;20042;-79
2022/02/27 03:19:33;;;;;;;;;;;;;;;;;;5075342;28;19920;-79
2022/02/27 03:21:58;;;;;;;;;;;;;;;;;;5075481;28;19915;-79
2022/02/27 03:24:23;;;;;;;;;;;;;;;;;;5075252;28;19916;-79
2022/02/27 03:26:48;;;;;;;;;;;;;;;;;;5075549;28;19971;-79
2022/02/27 03:29:13;;;;;;;;;;;;;;;;;;5076849;28;20389;-79
2022/02/27 03:31:38;;;;;;;;;;;;;;;;;;5075412;28;19914;-79
2022/02/27 03:34:03;;;;;;;;;;;;;;;;;;5075284;28;19909;-79
2022/02/27 03:36:28;;;;;;;;;;;;;;;;;;5075379;28;19915;-79
2022/02/27 03:38:53;;;;;;;;;;;;;;;;;;5075321;28;19916;-79
2022/02/27 03:41:19;;;;;;;;;;;;;;;;;;5075268;28;19923;-79
2022/02/27 03:43:44;;;;;;;;;;;;;;;;;;5074975;28;19923;-79
2022/02/27 03:46:09;;;;;;;;;;;;;;;;;;5075176;28;20364;-79
2022/02/27 03:48:34;;;;;;;;;;;;;;;;;;5074959;28;19912;-79
2022/02/27 03:50:59;;;;;;;;;;;;;;;;;;5074411;28;20295;-79
2022/02/27 03:53:24;;;;;;;;;;;;;;;;;;5075219;28;19916;-79
2022/02/27 03:55:49;;;;;;;;;;;;;;;;;;5075026;28;19915;-79
2022/02/27 03:58:14;;;;;;;;;;;;;;;;;;5074922;28;19909;-79
2022/02/27 04:00:39;;;;;;;;;;;;;;;;;;5074940;28;19909;-79
2022/02/27 04:03:04;;;;;;;;;;;;;;;;;;5076084;28;19909;-79
2022/02/27 04:05:30;;;;;;;;;;;;;;;;;;5074759;28;19917;-79
2022/02/27 04:07:55;;;;;;;;;;;;;;;;;;5074885;28;19909;-79
2022/02/27 04:10:20;;;;;;;;;;;;;;;;;;5075944;28;19909;-79
2022/02/27 04:12:45;;;;;;;;;;;;;;;;;;5074509;28;19912;-79
2022/02/27 04:15:10;;;;;;;;;;;;;;;;;;5074503;28;19912;-79
2022/02/27 04:17:35;;;;;;;;;;;;;;;;;;5075632;28;20368;-79
2022/02/27 04:20:00;;;;;;;;;;;;;;;;;;5074799;28;19913;-79
2022/02/27 04:22:25;;;;;;;;;;;;;;;;;;5074643;28;19923;-79
2022/02/27 04:24:51;;;;;;;;;;;;;;;;;;5074292;28;19918;-79
2022/02/27 04:27:16;;;;;;;;;;;;;;;;;;5074371;28;19913;-79
2022/02/27 04:29:41;;;;;;;;;;;;;;;;;;5074195;28;20330;-79
2022/02/27 04:32:07;;;;;;;;;;;;;;;;;;5074191;28;20364;-79
2022/02/27 04:34:32;;;;;;;;;;;;;;;;;;5074031;28;19999;-79
2022/02/27 04:36:57;;;;;;;;;;;;;;;;;;5075300;28;20383;-79
2022/02/27 04:39:22;;;;;;;;;;;;;;;;;;5074119;28;19908;-79
2022/02/27 04:41:47;;;;;;;;;;;;;;;;;;5075241;28;19917;-79
2022/02/27 04:44:12;;;;;;;;;;;;;;;;;;5075166;28;19916;-79
2022/02/27 04:46:37;;;;;;;;;;;;;;;;;;5057276;28;19916;-79
2022/02/27 04:49:03;;;;;;;;;;;;;;;;;;5057289;28;19912;-79
2022/02/27 04:51:28;;;;;;;;;;;;;;;;;;5057603;28;19913;-79
2022/02/27 04:53:53;;;;;;;;;;;;;;;;;;5057155;28;20306;-79
2022/02/27 04:56:18;;;;;;;;;;;;;;;;;;5057113;28;20279;-79
2022/02/27 04:58:43;;;;;;;;;;;;;;;;;;5057132;28;19965;-79
2022/02/27 05:01:08;;;;;;;;;;;;;;;;;;5056983;28;19921;-79
2022/02/27 05:03:33;;;;;;;;;;;;;;;;;;5056985;28;19908;-79
2022/02/27 05:05:58;;;;;;;;;;;;;;;;;;5074892;28;19909;-79
2022/02/27 05:08:23;;;;;;;;;;;;;;;;;;5050467;28;19912;-79
2022/02/27 05:10:48;;;;;;;;;;;;;;;;;;5036922;28;19923;-79
2022/02/27 05:13:14;;;;;;;;;;;;;;;;;;5054830;28;19909;-79
2022/02/27 05:15:39;;;;;;;;;;;;;;;;;;5036926;28;19913;-79
2022/02/27 05:18:04;;;;;;;;;;;;;;;;;;5036783;28;19913;-79
2022/02/27 05:20:29;;;;;;;;;;;;;;;;;;5036688;28;20016;-79
2022/02/27 05:22:54;;;;;;;;;;;;;;;;;;5050543;28;19916;-79
2022/02/27 05:25:19;;;;;;;;;;;;;;;;;;5056478;28;20391;-79
2022/02/27 05:27:45;;;;;;;;;;;;;;;;;;5056577;28;19944;-79
2022/02/27 05:30:10;;;;;;;;;;;;;;;;;;5074585;28;19909;-80
2022/02/27 05:32:35;;;;;;;;;;;;;;;;;;5056493;28;19909;-79
2022/02/27 05:35:00;;;;;;;;;;;;;;;;;;5056352;28;19908;-79
2022/02/27 05:37:25;;;;;;;;;;;;;;;;;;5056302;28;20352;-79
2022/02/27 05:39:50;;;;;;;;;;;;;;;;;;5074124;28;19995;-79
2022/02/27 05:42:15;;;;;;;;;;;;;;;;;;5045619;28;19964;-79
2022/02/27 05:44:40;;;;;;;;;;;;;;;;;;5036392;28;20342;-79
2022/02/27 05:47:05;;;;;;;;;;;;;;;;;;5036233;28;19978;-79
2022/02/27 05:49:30;;;;;;;;;;;;;;;;;;5036280;28;19959;-79
2022/02/27 05:51:56;;;;;;;;;;;;;;;;;;5036067;28;19915;-79
2022/02/27 05:54:21;;;;;;;;;;;;;;;;;;5036279;28;19909;-79
2022/02/27 05:56:46;;;;;;;;;;;;;;;;;;5036438;28;20296;-79
2022/02/27 05:59:11;;;;;;;;;;;;;;;;;;5053930;28;19909;-79
2022/02/27 06:01:36;;;;;;;;;;;;;;;;;;5035996;28;19913;-80
2022/02/27 06:04:01;;;;;;;;;;;;;;;;;;5035927;28;19913;-78
2022/02/27 06:06:26;;;;;;;;;;;;;;;;;;5035931;28;19912;-79
2022/02/27 06:08:51;;;;;;;;;;;;;;;;;;5035890;28;19936;-79
2022/02/27 06:11:16;;;;;;;;;;;;;;;;;;5035884;28;19913;-79
2022/02/27 06:13:41;;;;;;;;;;;;;;;;;;5035730;28;19970;-79
2022/02/27 06:16:06;;;;;;;;;;;;;;;;;;5036140;28;19963;-79
2022/02/27 06:18:32;;;;;;;;;;;;;;;;;;5055625;28;19908;-79
2022/02/27 06:20:57;;;;;;;;;;;;;;;;;;5055694;28;19908;-79
2022/02/27 06:23:22;;;;;;;;;;;;;;;;;;5073690;28;19970;-79
2022/02/27 06:25:47;;;;;;;;;;;;;;;;;;5073532;28;19908;-79
2022/02/27 06:28:12;;;;;;;;;;;;;;;;;;5055602;28;19909;-79
2022/02/27 06:30:37;;;;;;;;;;;;;;;;;;5055604;28;20049;-79
2022/02/27 06:33:02;;;;;;;;;;;;;;;;;;5055548;28;19961;-79
2022/02/27 06:35:28;;;;;;;;;;;;;;;;;;5056835;28;19919;-79
2022/02/27 06:37:53;;;;;;;;;;;;;;;;;;5077720;28;19919;-79
2022/02/27 06:40:18;;;;;;;;;;;;;;;;;;5063901;28;19920;-79
2022/02/27 06:42:43;;;;;;;;;;;;;;;;;;5075985;28;20069;-78
2022/02/27 06:45:08;;;;;;;;;;;;;;;;;;5076150;28;20015;-79
2022/02/27 06:47:33;;;;;;;;;;;;;;;;;;5077783;28;19931;-79
2022/02/27 06:49:58;;;;;;;;;;;;;;;;;;5076279;28;20278;-79
2022/02/27 06:52:23;;;;;;;;;;;;;;;;;;5076398;28;19915;-79
2022/02/27 06:54:48;;;;;;;;;;;;;;;;;;5076274;28;19915;-79
2022/02/27 06:57:14;;;;;;;;;;;;;;;;;;5075878;28;19913;-79
2022/02/27 06:59:39;;;;;;;;;;;;;;;;;;5076049;28;20007;-79
2022/02/27 07:02:04;;;;;;;;;;;;;;;;;;5075953;28;19981;-79
2022/02/27 07:04:29;;;;;;;;;;;;;;;;;;5075815;28;20421;-79
2022/02/27 07:06:54;;;;;;;;;;;;;;;;;;5077315;28;20422;-79
2022/02/27 07:09:20;;;;;;;;;;;;;;;;;;5075784;28;20084;-79
2022/02/27 07:11:45;;;;;;;;;;;;;;;;;;5075692;28;20283;-79
2022/02/27 07:14:10;;;;;;;;;;;;;;;;;;5075819;28;20398;-78
2022/02/27 07:16:35;;;;;;;;;;;;;;;;;;5075844;28;20360;-79
2022/02/27 07:19:00;;;;;;;;;;;;;;;;;;5075669;28;20003;-79
2022/02/27 07:21:25;;;;;;;;;;;;;;;;;;5075855;28;19913;-79
2022/02/27 07:23:51;;;;;;;;;;;;;;;;;;5076789;28;19912;-79
2022/02/27 07:26:16;;;;;;;;;;;;;;;;;;5075584;28;19912;-79
2022/02/27 07:28:41;;;;;;;;;;;;;;;;;;5075402;28;20360;-79
2022/02/27 07:31:06;;;;;;;;;;;;;;;;;;5075239;28;19917;-79
2022/02/27 07:33:31;;;;;;;;;;;;;;;;;;5075384;28;19908;-79
2022/02/27 07:35:56;;;;;;;;;;;;;;;;;;5075451;28;19913;-79
2022/02/27 07:38:21;;;;;;;;;;;;;;;;;;5075280;28;19916;-79
2022/02/27 07:40:48;;;;;;;;;;;;;;;;;;5075113;28;19923;-79
2022/02/27 07:43:13;;;;;;;;;;;;;;;;;;5074740;28;19912;-79
2022/02/27 07:45:38;;;;;;;;;;;;;;;;;;5074886;28;19920;-79
2022/02/27 07:48:03;;;;;;;;;;;;;;;;;;5074908;28;20605;-79
2022/02/27 07:50:28;;;;;;;;;;;;;;;;;;5074712;28;19916;-79
2022/02/27 07:52:53;;;;;;;;;;;;;;;;;;5074876;28;19909;-79
2022/02/27 07:55:20;;;;;;;;;;;;;;;;;;5074268;28;19916;-79
2022/02/27 07:57:45;;;;;;;;;;;;;;;;;;5076113;28;19963;-79
2022/02/27 08:00:10;;;;;;;;;;;;;;;;;;5074959;28;19912;-79
2022/02/27 08:02:35;;;;;;;;;;;;;;;;;;5074907;28;19915;-79
2022/02/27 08:05:00;;;;;;;;;;;;;;;;;;5076130;28;19919;-79
2022/02/27 08:07:26;;;;;;;;;;;;;;;;;;5074857;28;19912;-79
2022/02/27 08:09:54;;;;;;;;;;;;;;;;;;5074649;28;19928;-79
2022/02/27 08:12:19;;;;;;;;;;;;;;;;;;5105852;28;19920;-79
2022/02/27 08:14:46;;;;;;;;;;;;;;;;;;5085030;28;19923;-78
2022/02/27 08:17:11;;;;;;;;;;;;;;;;;;5082538;28;19912;-80
2022/02/27 08:19:37;;;;;;;;;;;;;;;;;;5078889;28;20329;-80
2022/02/27 08:22:02;;;;;;;;;;;;;;;;;;5102164;28;19961;-80
2022/02/27 08:24:27;;;;;;;;;;;;;;;;;;5078448;28;19921;-80
2022/02/27 08:26:52;;;;;;;;;;;;;;;;;;5093664;28;20394;-80
2022/02/27 08:29:17;;;;;;;;;;;;;;;;;;5108197;28;19908;-80
2022/02/27 08:31:44;;;;;;;;;;;;;;;;;;5097698;28;19913;-80
2022/02/27 08:34:10;;;;;;;;;;;;;;;;;;5087849;28;20368;-80
2022/02/27 08:36:35;;;;;;;;;;;;;;;;;;5074401;28;19912;-80
2022/02/27 08:39:00;;;;;;;;;;;;;;;;;;5095634;28;19908;-80
2022/02/27 08:41:26;;;;;;;;;;;;;;;;;;5082002;28;19970;-80
2022/02/27 08:43:51;;;;;;;;;;;;;;;;;;5091662;28;20002;-80
2022/02/27 08:46:16;;;;;;;;;;;;;;;;;;5085768;28;20062;-80
2022/02/27 08:48:41;;;;;;;;;;;;;;;;;;5085063;28;20264;-80
2022/02/27 08:51:06;;;;;;;;;;;;;;;;;;5074092;28;19917;-80
2022/02/27 08:53:31;;;;;;;;;;;;;;;;;;5079112;28;19916;-80
2022/02/27 08:55:56;;;;;;;;;;;;;;;;;;5094227;28;19912;-80
2022/02/27 08:58:21;;;;;;;;;;;;;;;;;;5080381;28;19912;-80
2022/02/27 09:00:47;;;;;;;;;;;;;;;;;;5073512;28;20011;-80
2022/02/27 09:03:12;;;;;;;;;;;;;;;;;;5075034;28;20298;-80
2022/02/27 09:05:37;;;;;;;;;;;;;;;;;;5094874;28;19916;-80
2022/02/27 09:08:02;;;;;;;;;;;;;;;;;;5107786;28;19908;-80
2022/02/27 09:10:27;;;;;;;;;;;;;;;;;;5107618;28;19909;-80
2022/02/27 09:12:52;;;;;;;;;;;;;;;;;;5108430;28;19957;-80
2022/02/27 09:15:18;;;;;;;;;;;;;;;;;;5078513;28;20368;-80
2022/02/27 09:17:43;;;;;;;;;;;;;;;;;;5095476;28;19957;-80
2022/02/27 09:20:08;;;;;;;;;;;;;;;;;;5084659;28;19917;-80
2022/02/27 09:22:33;;;;;;;;;;;;;;;;;;5073528;28;19912;-81
2022/02/27 09:24:58;;;;;;;;;;;;;;;;;;5083940;28;20012;-80
2022/02/27 09:27:23;;;;;;;;;;;;;;;;;;5073940;28;19963;-81
2022/02/27 09:29:48;;;;;;;;;;;;;;;;;;5073966;28;19912;-81
2022/02/27 09:32:13;;;;;;;;;;;;;;;;;;5102532;27;19913;-80
2022/02/27 09:34:39;;;;;;;;;;;;;;;;;;5086818;28;19951;-81
2022/02/27 09:37:04;;;;;;;;;;;;;;;;;;5081609;28;19999;-81
2022/02/27 09:39:30;;;;;;;;;;;;;;;;;;5093411;28;20003;-81
2022/02/27 09:41:56;;;;;;;;;;;;;;;;;;5076500;28;19939;-80
2022/02/27 09:44:21;;;;;;;;;;;;;;;;;;5127419;27;19916;-81
2022/02/27 09:46:48;;;;;;;;;;;;;;;;;;5094168;28;20288;-80
2022/02/27 09:49:13;;;;;;;;;;;;;;;;;;5093259;28;19908;-81
2022/02/27 09:51:38;;;;;;;;;;;;;;;;;;5091520;28;19954;-81
2022/02/27 09:54:03;;;;;;;;;;;;;;;;;;5072631;28;19912;-80
2022/02/27 09:56:28;;;;;;;;;;;;;;;;;;5072944;28;19913;-80
2022/02/27 09:58:54;;;;;;;;;;;;;;;;;;5074192;28;19915;-81
2022/02/27 10:01:19;;;;;;;;;;;;;;;;;;5072860;28;19920;-80
2022/02/27 10:03:44;;;;;;;;;;;;;;;;;;5082775;28;19908;-80
2022/02/27 10:06:09;;;;;;;;;;;;;;;;;;5094306;28;19912;-80
2022/02/27 10:08:34;;;;;;;;;;;;;;;;;;5093030;28;19908;-81
2022/02/27 10:11:00;;;;;;;;;;;;;;;;;;5089681;28;20299;-81
2022/02/27 10:13:25;;;;;;;;;;;;;;;;;;5073714;28;19916;-80
2022/02/27 10:15:50;;;;;;;;;;;;;;;;;;5072768;28;19959;-80
2022/02/27 10:18:15;;;;;;;;;;;;;;;;;;5072705;28;20273;-81
2022/02/27 10:20:40;;;;;;;;;;;;;;;;;;5072922;28;19916;-81
2022/02/27 10:23:05;;;;;;;;;;;;;;;;;;5092817;28;19914;-81
2022/02/27 10:25:30;;;;;;;;;;;;;;;;;;5094057;28;20390;-81
2022/02/27 10:27:55;;;;;;;;;;;;;;;;;;5082202;28;19912;-81
2022/02/27 10:30:21;;;;;;;;;;;;;;;;;;5079370;28;19912;-81
2022/02/27 10:32:46;;;;;;;;;;;;;;;;;;5092811;28;20260;-81
2022/02/27 10:35:11;;;;;;;;;;;;;;;;;;5094376;28;19908;-81
2022/02/27 10:37:37;;;;;;;;;;;;;;;;;;5092810;28;19950;-81
2022/02/27 10:40:02;;;;;;;;;;;;;;;;;;5090847;28;20006;-81
2022/02/27 10:42:28;;;;;;;;;;;;;;;;;;5078011;28;19916;-81
2022/02/27 10:44:54;;;;;;;;;;;;;;;;;;5072027;28;20012;-81
2022/02/27 10:47:19;;;;;;;;;;;;;;;;;;5073708;28;19908;-81
2022/02/27 10:49:44;;;;;;;;;;;;;;;;;;5107329;28;19921;-81
2022/02/27 10:52:09;;;;;;;;;;;;;;;;;;5072391;28;19913;-81
2022/02/27 10:54:34;;;;;;;;;;;;;;;;;;5072434;28;20376;-81
2022/02/27 10:56:59;;;;;;;;;;;;;;;;;;5072026;28;19995;-81
2022/02/27 10:59:24;;;;;;;;;;;;;;;;;;5072286;28;20007;-81
2022/02/27 11:01:49;;;;;;;;;;;;;;;;;;5072193;28;19909;-81
2022/02/27 11:04:14;;;;;;;;;;;;;;;;;;5072183;28;20317;-81
2022/02/27 11:06:40;;;;;;;;;;;;;;;;;;5074925;28;20376;-81
2022/02/27 11:09:08;;;;;;;;;;;;;;;;;;5072261;28;20070;-81
2022/02/27 11:11:33;;;;;;;;;;;;;;;;;;5072172;28;19915;-81
2022/02/27 11:13:58;;;;;;;;;;;;;;;;;;5072181;28;19908;-81
2022/02/27 11:16:25;;;;;;;;;;;;;;;;;;5074620;28;19947;-81
2022/02/27 11:18:50;;;;;;;;;;;;;;;;;;5068734;28;19962;-81
2022/02/27 11:21:15;;;;;;;;;;;;;;;;;;5080028;28;19917;-81
2022/02/27 11:23:40;;;;;;;;;;;;;;;;;;5077881;28;19913;-81
2022/02/27 11:26:06;;;;;;;;;;;;;;;;;;5091560;28;19923;-81
2022/02/27 11:28:31;;;;;;;;;;;;;;;;;;5094369;28;19919;-81
2022/02/27 11:30:56;;;;;;;;;;;;;;;;;;5078095;28;20410;-81
2022/02/27 11:33:21;;;;;;;;;;;;;;;;;;5075683;28;19961;-81
2022/02/27 11:35:46;;;;;;;;;;;;;;;;;;5075639;28;19921;-81
2022/02/27 11:38:11;;;;;;;;;;;;;;;;;;5075533;28;19930;-81
2022/02/27 11:40:37;;;;;;;;;;;;;;;;;;5075382;28;19925;-81
2022/02/27 11:43:02;;;;;;;;;;;;;;;;;;5075534;28;19908;-81
2022/02/27 11:45:27;;;;;;;;;;;;;;;;;;5086388;28;19916;-81
2022/02/27 11:47:53;;;;;;;;;;;;;;;;;;5095626;28;20279;-81
2022/02/27 11:50:18;;;;;;;;;;;;;;;;;;5095554;28;19908;-81
2022/02/27 11:52:43;;;;;;;;;;;;;;;;;;5078642;28;19955;-81
2022/02/27 11:55:10;;;;;;;;;;;;;;;;;;5075267;28;20035;-81
2022/02/27 11:57:36;;;;;;;;;;;;;;;;;;5075287;28;19948;-81
2022/02/27 12:00:02;;;;;;;;;;;;;;;;;;5078911;28;19920;-81
2022/02/27 12:02:27;;;;;;;;;;;;;;;;;;5075698;28;19916;-81
2022/02/27 12:04:52;;;;;;;;;;;;;;;;;;5075248;28;20256;-81
2022/02/27 12:07:17;;;;;;;;;;;;;;;;;;5076301;28;19940;-80
2022/02/27 12:09:42;;;;;;;;;;;;;;;;;;5079546;28;19995;-80
2022/02/27 12:12:07;;;;;;;;;;;;;;;;;;5086809;28;20260;-80
2022/02/27 12:14:32;;;;;;;;;;;;;;;;;;5117027;27;19916;-80
2022/02/27 12:16:57;;;;;;;;;;;;;;;;;;5074682;28;19913;-80
2022/02/27 12:19:23;;;;;;;;;;;;;;;;;;5075835;28;19908;-80
2022/02/27 12:21:49;;;;;;;;;;;;;;;;;;5088622;28;19920;-80
2022/02/27 12:24:14;;;;;;;;;;;;;;;;;;5129092;27;19935;-80
2022/02/27 12:26:42;;;;;;;;;;;;;;;;;;5089046;28;19908;-80
2022/02/27 12:29:07;;;;;;;;;;;;;;;;;;5074349;28;19916;-80
2022/02/27 12:31:33;;;;;;;;;;;;;;;;;;5074543;28;20260;-80
2022/02/27 12:33:58;;;;;;;;;;;;;;;;;;5074470;28;19908;-80
2022/02/27 12:36:23;;;;;;;;;;;;;;;;;;5074438;28;20379;-80
2022/02/27 12:38:48;;;;;;;;;;;;;;;;;;5081230;28;20275;-80
2022/02/27 12:41:14;;;;;;;;;;;;;;;;;;5113777;27;19916;-80
2022/02/27 12:43:39;;;;;;;;;;;;;;;;;;5081477;28;19912;-80
2022/02/27 12:46:04;;;;;;;;;;;;;;;;;;5084746;28;19912;-80
2022/02/27 12:50:16;;;;;;;;;;;;;;;;;;5074347;28;19975;-80
2022/02/27 12:51:14;;;;;;;;;;;;;;;;;;5093956;28;19909;-80
2022/02/27 12:53:39;;;;;;;;;;;;;;;;;;5089993;28;19919;-80
2022/02/27 12:56:04;;;;;;;;;;;;;;;;;;5074234;28;19919;-80
2022/02/27 12:58:29;;;;;;;;;;;;;;;;;;5073988;28;19912;-80
2022/02/27 13:00:54;;;;;;;;;;;;;;;;;;5073649;28;19912;-80
2022/02/27 13:03:19;;;;;;;;;;;;;;;;;;5073684;28;19908;-80
2022/02/27 13:05:45;;;;;;;;;;;;;;;;;;5073760;28;19938;-80
2022/02/27 13:08:10;;;;;;;;;;;;;;;;;;5107681;28;19916;-80
2022/02/27 13:10:35;;;;;;;;;;;;;;;;;;5109305;27;20007;-80
2022/02/27 13:13:00;;;;;;;;;;;;;;;;;;5085511;28;19944;-80
2022/02/27 13:15:25;;;;;;;;;;;;;;;;;;5087502;28;19963;-80
2022/02/27 13:17:50;;;;;;;;;;;;;;;;;;5090934;28;19915;-80
2022/02/27 13:20:15;;;;;;;;;;;;;;;;;;5077371;28;20339;-80
2022/02/27 13:22:41;;;;;;;;;;;;;;;;;;5087226;28;19937;-79
2022/02/27 13:25:09;;;;;;;;;;;;;;;;;;5081272;28;20269;-80
2022/02/27 13:27:34;;;;;;;;;;;;;;;;;;5117055;27;20373;-80
2022/02/27 13:29:59;;;;;;;;;;;;;;;;;;5093446;28;20406;-80
2022/02/27 13:32:24;;;;;;;;;;;;;;;;;;5093247;28;20019;-80
2022/02/27 13:34:49;;;;;;;;;;;;;;;;;;5106123;27;19912;-80
2022/02/27 13:37:14;;;;;;;;;;;;;;;;;;5110967;27;19913;-80
2022/02/27 13:39:40;;;;;;;;;;;;;;;;;;5108289;27;20344;-80
2022/02/27 13:42:05;;;;;;;;;;;;;;;;;;5075342;28;19931;-79
2022/02/27 13:44:30;;;;;;;;;;;;;;;;;;5076988;28;19916;-81
2022/02/27 13:46:55;;;;;;;;;;;;;;;;;;5081563;28;20018;-79
2022/02/27 13:49:20;;;;;;;;;;;;;;;;;;5125081;27;19915;-79
2022/02/27 13:51:45;;;;;;;;;;;;;;;;;;5092259;28;19916;-78
2022/02/27 13:54:10;;;;;;;;;;;;;;;;;;5085233;28;20430;-78
2022/02/27 13:56:35;;;;;;;;;;;;;;;;;;5072719;28;19924;-78
2022/02/27 13:59:00;;;;;;;;;;;;;;;;;;5072402;28;19909;-78
2022/02/27 14:01:26;;;;;;;;;;;;;;;;;;5086660;28;19916;-78
2022/02/27 14:03:51;;;;;;;;;;;;;;;;;;5092751;28;19916;-78
2022/02/27 14:06:17;;;;;;;;;;;;;;;;;;5097555;28;19920;-77
2022/02/27 14:08:42;;;;;;;;;;;;;;;;;;5101842;28;20272;-78
2022/02/27 14:11:07;;;;;;;;;;;;;;;;;;5084963;28;20007;-77
2022/02/27 14:13:33;;;;;;;;;;;;;;;;;;5073306;28;20005;-78
2022/02/27 14:16:01;;;;;;;;;;;;;;;;;;5098408;28;19968;-78
2022/02/27 14:18:27;;;;;;;;;;;;;;;;;;5073083;28;19951;-78
2022/02/27 14:20:53;;;;;;;;;;;;;;;;;;5060790;28;19912;-78
2022/02/27 14:23:18;;;;;;;;;;;;;;;;;;5072248;28;19939;-78
2022/02/27 14:25:43;;;;;;;;;;;;;;;;;;5072498;28;19912;-78
2022/02/27 14:28:08;;;;;;;;;;;;;;;;;;5072212;28;19908;-78
2022/02/27 14:30:36;;;;;;;;;;;;;;;;;;5072208;28;20360;-78
2022/02/27 14:33:01;;;;;;;;;;;;;;;;;;5072484;28;19999;-78
2022/02/27 14:35:26;;;;;;;;;;;;;;;;;;5072359;28;20019;-78
2022/02/27 14:37:51;;;;;;;;;;;;;;;;;;5072297;28;19908;-78
2022/02/27 14:40:18;;;;;;;;;;;;;;;;;;5073439;28;19925;-78
2022/02/27 14:42:43;;;;;;;;;;;;;;;;;;5054289;28;20417;-78
2022/02/27 14:45:08;;;;;;;;;;;;;;;;;;5035415;28;20015;-78
2022/02/27 14:47:33;;;;;;;;;;;;;;;;;;5035502;28;19999;-78
2022/02/27 14:49:58;;;;;;;;;;;;;;;;;;5053429;28;19908;-78
2022/02/27 14:52:23;;;;;;;;;;;;;;;;;;5035669;28;20375;-78
2022/02/27 14:54:48;;;;;;;;;;;;;;;;;;5035369;28;19913;-78
2022/02/27 14:57:13;;;;;;;;;;;;;;;;;;5055765;28;19916;-78
2022/02/27 14:59:38;;;;;;;;;;;;;;;;;;5039396;28;19958;-78
2022/02/27 15:02:04;;;;;;;;;;;;;;;;;;5039210;28;19908;-78
2022/02/27 15:04:29;;;;;;;;;;;;;;;;;;5039332;28;20323;-78
2022/02/27 15:06:54;;;;;;;;;;;;;;;;;;5057184;28;19908;-78
2022/02/27 15:09:19;;;;;;;;;;;;;;;;;;5039364;28;19912;-78
2022/02/27 15:11:44;;;;;;;;;;;;;;;;;;5039059;28;19921;-78
2022/02/27 15:14:09;;;;;;;;;;;;;;;;;;5056966;28;19916;-78
2022/02/27 15:16:34;;;;;;;;;;;;;;;;;;5056822;28;20288;-78
2022/02/27 15:18:59;;;;;;;;;;;;;;;;;;5038921;28;19999;-78
2022/02/27 15:21:25;;;;;;;;;;;;;;;;;;5038903;28;19909;-78
2022/02/27 15:23:50;;;;;;;;;;;;;;;;;;5039045;28;19917;-78
2022/02/27 15:26:15;;;;;;;;;;;;;;;;;;5038969;28;19917;-78
2022/02/27 15:28:40;;;;;;;;;;;;;;;;;;5038783;28;19972;-78
2022/02/27 15:31:05;;;;;;;;;;;;;;;;;;5038714;28;19909;-78
2022/02/27 15:33:30;;;;;;;;;;;;;;;;;;5038709;28;20253;-78
2022/02/27 15:35:55;;;;;;;;;;;;;;;;;;5038468;28;19909;-78
2022/02/27 15:38:20;;;;;;;;;;;;;;;;;;5046733;28;19916;-78
2022/02/27 15:40:45;;;;;;;;;;;;;;;;;;5066612;28;19920;-78
2022/02/27 15:43:11;;;;;;;;;;;;;;;;;;5075099;28;20391;-78
2022/02/27 15:45:36;;;;;;;;;;;;;;;;;;5075107;28;19917;-78
2022/02/27 15:48:01;;;;;;;;;;;;;;;;;;5075195;28;19967;-78
2022/02/27 15:50:26;;;;;;;;;;;;;;;;;;5075087;28;19909;-78
2022/02/27 15:52:51;;;;;;;;;;;;;;;;;;5076120;28;19966;-78
2022/02/27 15:55:16;;;;;;;;;;;;;;;;;;5075142;28;20379;-78
2022/02/27 15:57:41;;;;;;;;;;;;;;;;;;5074956;28;19909;-78
2022/02/27 16:00:06;;;;;;;;;;;;;;;;;;5074935;28;19913;-78
2022/02/27 16:02:32;;;;;;;;;;;;;;;;;;5076433;28;19913;-78
2022/02/27 16:04:57;;;;;;;;;;;;;;;;;;5074939;28;19920;-78
2022/02/27 16:07:22;;;;;;;;;;;;;;;;;;5074483;28;20280;-78
2022/02/27 16:09:47;;;;;;;;;;;;;;;;;;5074834;28;19916;-78
2022/02/27 16:12:12;;;;;;;;;;;;;;;;;;5074694;28;19954;-78
2022/02/27 16:14:37;;;;;;;;;;;;;;;;;;5074855;28;19912;-78
2022/02/27 16:17:02;;;;;;;;;;;;;;;;;;5074768;28;19954;-78
2022/02/27 16:19:29;;;;;;;;;;;;;;;;;;5074639;28;20248;-78
2022/02/27 16:21:54;;;;;;;;;;;;;;;;;;5074567;28;19916;-78
2022/02/27 16:24:19;;;;;;;;;;;;;;;;;;5073302;28;19916;-78
2022/02/27 16:26:44;;;;;;;;;;;;;;;;;;5073795;28;20291;-78
2022/02/27 16:29:09;;;;;;;;;;;;;;;;;;5073466;28;19908;-78
2022/02/27 16:31:34;;;;;;;;;;;;;;;;;;5074707;28;19917;-78